createdAt,value
2023-03-24T06:45:08.789Z,95540.36
2023-03-24T06:47:38.122Z,95534.41
2023-03-24T06:50:07.914Z,95526.91
2023-03-24T06:52:36.672Z,95528.14
2023-03-24T06:55:06.398Z,95519.40
2023-03-24T06:57:34.875Z,95519.20
2023-03-24T07:00:21.690Z,95521.94
2023-03-24T07:03:04.339Z,95520.28
2023-03-24T07:05:35.057Z,95521.80
2023-03-24T07:08:28.001Z,95522.75
2023-03-24T07:10:59.024Z,95519.63
2023-03-24T07:13:27.096Z,95515.48
2023-03-24T07:16:00.223Z,95514.43
2023-03-24T07:18:29.211Z,95513.53
2023-03-24T07:21:07.772Z,95514.23
2023-03-24T07:23:36.728Z,95515.65
2023-03-24T07:26:19.097Z,95511.92
2023-03-24T07:28:50.948Z,95509.59
2023-03-24T07:31:37.908Z,95506.83
2023-03-24T07:34:09.253Z,95504.31
2023-03-24T07:36:38.918Z,95504.14
2023-03-24T07:39:09.749Z,95502.95
2023-03-24T07:41:38.025Z,95497.20
2023-03-24T07:44:12.561Z,95490.42
2023-03-24T07:46:46.489Z,95487.23
2023-03-24T07:49:19.497Z,95482.08
2023-03-24T07:52:06.851Z,95483.30
2023-03-24T07:54:40.211Z,95478.95
2023-03-24T07:57:10.985Z,95476.98
2023-03-24T07:59:39.894Z,95466.66
2023-03-24T08:02:20.793Z,95457.98
2023-03-24T08:05:16.382Z,95457.88
2023-03-24T08:08:06.892Z,95455.30
2023-03-24T08:10:35.972Z,95449.38
2023-03-24T08:13:04.100Z,95443.59
2023-03-24T08:15:32.638Z,95441.58
2023-03-24T08:18:01.097Z,95440.27
2023-03-24T08:20:29.843Z,95443.27
2023-03-24T08:22:58.069Z,95438.95
2023-03-24T08:25:27.040Z,95436.70
2023-03-24T08:27:55.477Z,95435.94
2023-03-24T08:30:26.042Z,95432.65
2023-03-24T08:32:57.436Z,95428.23
2023-03-24T08:35:29.180Z,95425.13
2023-03-24T08:37:59.548Z,95426.10
2023-03-24T08:40:29.322Z,95425.14
2023-03-24T08:43:01.046Z,95423.80
2023-03-24T08:45:31.692Z,95421.04
2023-03-24T08:48:02.781Z,95418.46
2023-03-24T08:50:35.212Z,95413.48
2023-03-24T08:53:04.826Z,95410.10
2023-03-24T08:55:33.702Z,95404.90
2023-03-24T08:58:02.253Z,95407.05
2023-03-24T09:00:30.578Z,95402.73
2023-03-24T09:03:01.340Z,95401.73
2023-03-24T09:05:41.004Z,95397.70
2023-03-24T09:08:14.212Z,95399.09
2023-03-24T09:10:43.611Z,95394.14
2023-03-24T09:13:11.805Z,95399.64
2023-03-24T09:15:40.433Z,95396.88
2023-03-24T09:18:08.875Z,95389.09
2023-03-24T09:20:37.253Z,95384.34
2023-03-24T09:23:05.724Z,95386.59
2023-03-24T09:25:34.103Z,95382.23
2023-03-24T09:28:02.805Z,95381.98
2023-03-24T09:30:33.322Z,95379.38
2023-03-24T09:33:03.113Z,95381.95
2023-03-24T09:35:31.569Z,95379.73
2023-03-24T09:38:00.123Z,95377.80
2023-03-24T09:40:31.312Z,95372.66
2023-03-24T09:43:12.629Z,95367.23
2023-03-24T09:45:51.682Z,95363.37
2023-03-24T09:48:51.932Z,95361.39
2023-03-24T09:51:36.752Z,95361.30
2023-03-24T09:54:27.432Z,95358.19
2023-03-24T09:56:57.656Z,95351.79
2023-03-24T09:59:26.038Z,95349.17
2023-03-24T10:01:54.428Z,95348.27
2023-03-24T10:04:26.693Z,95344.00
2023-03-24T10:07:16.373Z,95345.52
2023-03-24T10:09:49.042Z,95342.21
2023-03-24T10:12:46.617Z,95337.22
2023-03-24T10:15:37.583Z,95330.69
2023-03-24T10:18:12.620Z,95330.85
2023-03-24T10:21:02.894Z,95329.36
2023-03-24T10:23:47.959Z,95321.91
2023-03-24T10:26:39.416Z,95323.89
2023-03-24T10:29:19.694Z,95318.58
2023-03-24T10:31:52.372Z,95316.21
2023-03-24T10:34:22.722Z,95314.92
